Time;durP1;ratioP1;P1;durP2;ratioP2;P2;SDS_P1;SDS_P2;PMS_P1;PMS_P2;Temp;Humidity;BMP_temperature;BMP_pressure;BME280_temperature;BME280_humidity;BME280_pressure;Samples;Min_cycle;Max_cycle;Signal;HPM_P1;HPM_P2
2022/12/19 00:01:59;;;;;;;;;;;;;;;-4.83;100.00;97138.22;4961787;28;19921;-93
2022/12/19 00:04:24;;;;;;;;;;;;;;;-4.78;100.00;97138.06;4968023;28;19937;-92
2022/12/19 00:06:50;;;;;;;;;;;;;;;-4.80;100.00;97127.84;4987249;28;19977;-93
2022/12/19 00:09:15;;;;;;;;;;;;;;;-4.72;100.00;97132.78;4990829;28;19928;-94
2022/12/19 00:11:41;;;;;;;;;;;;;;;-4.72;100.00;97127.63;4976393;28;20268;-93
2022/12/19 00:14:09;;;;;;;;;;;;;;;-4.70;100.00;97141.25;4976781;28;19956;-91
2022/12/19 00:16:37;;;;;;;;;;;;;;;-4.70;100.00;97132.72;4960842;28;19973;-92
2022/12/19 00:19:02;;;;;;;;;;;;;;;-4.67;100.00;97132.63;4979762;28;20276;-91
2022/12/19 00:24:56;;;;;;;;;;;;;;;-4.55;100.00;97151.09;4992581;28;19964;-91
2022/12/19 00:30:50;;;;;;;;;;;;;;;-4.56;100.00;97162.25;4977394;28;19925;-91
2022/12/19 00:36:44;;;;;;;;;;;;;;;-4.55;100.00;97153.66;4976797;28;19921;-94
2022/12/19 00:42:38;;;;;;;;;;;;;;;-4.62;100.00;97176.97;4977650;28;20008;-92
2022/12/19 00:48:32;;;;;;;;;;;;;;;-4.68;100.00;97160.03;4983525;28;19957;-92
2022/12/19 00:54:26;;;;;;;;;;;;;;;-4.73;100.00;97156.72;4977053;28;19965;-92
2022/12/19 00:56:51;;;;;;;;;;;;;;;-4.76;100.00;97157.69;4976376;28;19914;-92
2022/12/19 00:59:17;;;;;;;;;;;;;;;-4.76;100.00;97162.81;4975688;28;19929;-94
2022/12/19 01:01:43;;;;;;;;;;;;;;;-4.77;100.00;97167.97;4980387;28;19913;-95
2022/12/19 01:04:12;;;;;;;;;;;;;;;-4.74;100.00;97170.47;4975868;28;20009;-92
2022/12/19 01:06:40;;;;;;;;;;;;;;;-4.67;100.00;97169.41;4975885;28;19921;-92
2022/12/19 01:09:06;;;;;;;;;;;;;;;-4.66;100.00;97167.66;4975774;28;20287;-92
2022/12/19 01:15:00;;;;;;;;;;;;;;;-4.62;100.00;97166.72;4976941;28;19921;-92
2022/12/19 01:17:27;;;;;;;;;;;;;;;-4.60;100.00;97154.66;4975550;28;19913;-92
2022/12/19 01:19:52;;;;;;;;;;;;;;;-4.59;100.00;97152.06;4975845;28;19917;-92
2022/12/19 01:22:18;;;;;;;;;;;;;;;-4.59;100.00;97154.63;4976095;28;20364;-92
2022/12/19 01:28:14;;;;;;;;;;;;;;;-4.50;100.00;97149.22;4976907;28;19937;-92
2022/12/19 01:34:08;;;;;;;;;;;;;;;-4.36;100.00;97151.41;4976868;28;19956;-92
2022/12/19 01:36:34;;;;;;;;;;;;;;;-4.38;100.00;97136.91;4975803;28;20380;-92
2022/12/19 01:39:00;;;;;;;;;;;;;;;-4.30;100.00;97140.91;4977521;28;19917;-92
2022/12/19 01:45:06;;;;;;;;;;;;;;;-4.13;100.00;97148.09;4983982;28;19960;-94
2022/12/19 01:47:34;;;;;;;;;;;;;;;-4.08;100.00;97127.44;4983606;28;19949;-92
2022/12/19 01:50:01;;;;;;;;;;;;;;;-4.00;100.00;97132.31;4996037;28;19906;-92
2022/12/19 01:55:56;;;;;;;;;;;;;;;-3.99;100.00;97114.31;4982968;28;19921;-92
2022/12/19 02:01:52;;;;;;;;;;;;;;;-3.88;100.00;97098.53;4991480;28;20012;-92
2022/12/19 02:07:50;;;;;;;;;;;;;;;-3.80;100.00;97094.81;4980594;28;20316;-92
2022/12/19 02:13:44;;;;;;;;;;;;;;;-3.79;100.00;97098.22;4980335;28;19936;-93
2022/12/19 02:19:38;;;;;;;;;;;;;;;-3.85;100.00;97093.31;4980446;28;19920;-92
2022/12/19 02:22:07;;;;;;;;;;;;;;;-3.82;100.00;97117.16;4995706;28;19918;-92
2022/12/19 02:24:33;;;;;;;;;;;;;;;-3.77;100.00;97108.47;5004345;28;19941;-91
2022/12/19 02:27:06;;;;;;;;;;;;;;;-3.82;100.00;97100.91;5016318;28;19902;-91
2022/12/19 02:29:34;;;;;;;;;;;;;;;-3.87;100.00;97119.03;5000357;28;19914;-92
2022/12/19 02:36:07;;;;;;;;;;;;;;;-4.10;100.00;97088.94;4960448;29;20018;-92
2022/12/19 02:38:39;;;;;;;;;;;;;;;-4.16;100.00;97090.84;4887597;29;19967;-92
2022/12/19 02:41:09;;;;;;;;;;;;;;;-4.20;100.00;97100.38;4901851;29;20046;-92
2022/12/19 02:43:37;;;;;;;;;;;;;;;-4.14;100.00;97110.47;4916910;29;19921;-91
2022/12/19 02:49:36;;;;;;;;;;;;;;;-4.16;100.00;97073.72;4960290;28;19925;-92
2022/12/19 02:52:30;;;;;;;;;;;;;;;-4.20;100.00;97084.97;4961211;29;19942;-92
2022/12/19 02:54:59;;;;;;;;;;;;;;;-4.19;100.00;97071.28;4944786;29;19914;-92
2022/12/19 03:01:06;;;;;;;;;;;;;;;-4.14;100.00;97071.94;4960532;29;19925;-91
2022/12/19 03:03:32;;;;;;;;;;;;;;;-4.09;100.00;97051.25;4944087;29;19921;-92
2022/12/19 03:09:31;;;;;;;;;;;;;;;-3.98;100.00;97071.47;4960278;29;19962;-92
2022/12/19 03:12:05;;;;;;;;;;;;;;;-3.91;100.00;97066.06;4959418;29;19922;-92
2022/12/19 03:17:59;;;;;;;;;;;;;;;-3.98;100.00;97084.31;4960056;29;19921;-93
2022/12/19 03:20:30;;;;;;;;;;;;;;;-4.06;100.00;97087.97;4974997;28;19939;-94
2022/12/19 03:26:26;;;;;;;;;;;;;;;-4.00;100.00;97080.94;4959839;29;19921;-92
2022/12/19 03:32:22;;;;;;;;;;;;;;;-4.08;100.00;97088.91;4976144;28;19949;-92
2022/12/19 03:38:16;;;;;;;;;;;;;;;-4.01;100.00;97126.34;4972974;28;19936;-92
2022/12/19 03:40:43;;;;;;;;;;;;;;;-4.00;100.00;97102.31;4929980;29;19937;-93
2022/12/19 03:43:11;;;;;;;;;;;;;;;-4.00;100.00;97097.19;4927575;29;19911;-93
2022/12/19 03:49:06;;;;;;;;;;;;;;;-3.92;100.00;97102.94;4959736;29;19966;-93
2022/12/19 03:55:05;;;;;;;;;;;;;;;-3.79;100.00;97095.66;4959512;29;20056;-93
2022/12/19 04:01:00;;;;;;;;;;;;;;;-3.76;100.00;97102.41;4958744;28;19996;-93
2022/12/19 04:03:27;;;;;;;;;;;;;;;-3.80;100.00;97099.94;4926648;29;19921;-92
2022/12/19 04:05:54;;;;;;;;;;;;;;;-3.81;100.00;97105.16;4926267;29;19914;-94
2022/12/19 04:11:51;;;;;;;;;;;;;;;-3.75;100.00;97107.53;4958771;29;19926;-94
2022/12/19 04:17:45;;;;;;;;;;;;;;;-3.68;100.00;97111.56;4959263;29;19981;-93
2022/12/19 04:20:10;;;;;;;;;;;;;;;-3.66;100.00;97108.94;4944442;29;19918;-93
2022/12/19 04:22:36;;;;;;;;;;;;;;;-3.63;100.00;97104.53;4942387;29;19914;-93
2022/12/19 04:25:03;;;;;;;;;;;;;;;-3.63;100.00;97104.53;4944600;28;19922;-93
2022/12/19 04:27:31;;;;;;;;;;;;;;;-3.58;100.00;97100.09;4928685;29;19914;-93
2022/12/19 04:33:25;;;;;;;;;;;;;;;-3.52;100.00;97111.91;4961284;29;19967;-92
2022/12/19 04:35:50;;;;;;;;;;;;;;;-3.50;100.00;97112.69;4927500;29;19922;-93
2022/12/19 04:38:16;;;;;;;;;;;;;;;-3.51;100.00;97107.59;4926976;29;19921;-93
2022/12/19 04:44:10;;;;;;;;;;;;;;;-3.43;100.00;97103.03;4958843;29;19922;-93
2022/12/19 04:46:35;;;;;;;;;;;;;;;-3.45;100.00;97120.25;4925409;29;19914;-93
2022/12/19 04:49:01;;;;;;;;;;;;;;;-3.40;100.00;97114.03;4926111;29;19914;-94
2022/12/19 04:51:26;;;;;;;;;;;;;;;-3.39;100.00;97114.88;4940960;29;20404;-93
2022/12/19 04:53:52;;;;;;;;;;;;;;;-3.43;100.00;97119.28;4957082;29;19921;-93
2022/12/19 04:56:17;;;;;;;;;;;;;;;-3.43;100.00;97109.00;4941159;29;20308;-92
2022/12/19 05:02:12;;;;;;;;;;;;;;;-3.39;100.00;97102.03;4959114;29;20014;-93
2022/12/19 05:04:37;;;;;;;;;;;;;;;-3.37;100.00;97105.38;4957079;29;19953;-93
2022/12/19 05:07:03;;;;;;;;;;;;;;;-3.42;100.00;97103.00;4957648;29;19918;-93
2022/12/19 05:09:32;;;;;;;;;;;;;;;-3.39;100.00;97100.28;4958024;29;19929;-93
2022/12/19 05:15:27;;;;;;;;;;;;;;;-3.36;100.00;97104.50;4986912;28;19937;-94
2022/12/19 05:17:52;;;;;;;;;;;;;;;-3.31;100.00;97115.47;4974763;28;19926;-93
2022/12/19 05:20:18;;;;;;;;;;;;;;;-3.33;100.00;97114.69;4968087;28;19914;-93
2022/12/19 05:22:43;;;;;;;;;;;;;;;-3.26;100.00;97113.56;4963162;29;19960;-91
2022/12/19 05:28:37;;;;;;;;;;;;;;;-3.20;100.00;97118.50;4965177;28;20407;-93
2022/12/19 05:34:31;;;;;;;;;;;;;;;-3.22;100.00;97117.75;4964201;28;20037;-93
2022/12/19 05:36:57;;;;;;;;;;;;;;;-3.22;100.00;97122.88;4962601;28;20419;-94
2022/12/19 05:42:51;;;;;;;;;;;;;;;-3.09;100.00;97118.94;4962852;29;19934;-94
2022/12/19 05:45:16;;;;;;;;;;;;;;;-3.12;100.00;97107.94;4950684;29;19915;-92
2022/12/19 05:47:45;;;;;;;;;;;;;;;-3.03;100.00;97114.50;4959032;28;19918;-93
2022/12/19 05:50:12;;;;;;;;;;;;;;;-3.09;100.00;97107.81;4945349;29;19911;-92
2022/12/19 05:52:37;;;;;;;;;;;;;;;-3.09;100.00;97111.25;4936170;28;19958;-93
2022/12/19 05:58:09;;;;;;;;;;;;;;;-3.05;100.00;97104.28;4910620;29;19915;-92
2022/12/19 06:00:38;;;;;;;;;;;;;;;-3.03;100.00;97109.34;4908107;29;19928;-93
2022/12/19 06:09:07;;;;;;;;;;;;;;;-2.88;100.00;97109.66;4952254;28;20559;-91
2022/12/19 06:11:43;;;;;;;;;;;;;;;-2.83;100.00;97104.31;4946602;28;19918;-92
2022/12/19 06:14:15;;;;;;;;;;;;;;;-2.74;100.00;97104.00;4845327;29;19961;-91
2022/12/19 06:16:41;;;;;;;;;;;;;;;-2.66;100.00;97107.13;4776538;29;20021;-91
2022/12/19 06:19:07;;;;;;;;;;;;;;;-2.64;100.00;97107.06;4801891;29;20670;-94
2022/12/19 06:21:37;;;;;;;;;;;;;;;-2.61;100.00;97106.97;4792557;29;19918;-93
2022/12/19 06:24:02;;;;;;;;;;;;;;;-2.54;100.00;97097.28;4842362;28;20048;-94
2022/12/19 06:26:28;;;;;;;;;;;;;;;-2.49;100.00;97092.78;4827280;29;20770;-93
2022/12/19 06:28:54;;;;;;;;;;;;;;;-2.48;100.00;97095.31;4866051;28;19934;-94
2022/12/19 06:31:23;;;;;;;;;;;;;;;-2.45;100.00;97089.16;4884204;29;20157;-93
2022/12/19 06:33:48;;;;;;;;;;;;;;;-2.37;100.00;97085.41;4907407;29;19914;-93
2022/12/19 06:36:21;;;;;;;;;;;;;;;-2.36;100.00;97078.53;4923047;29;20405;-93
2022/12/19 06:39:06;;;;;;;;;;;;;;;-2.33;100.00;97080.97;4920736;29;20014;-94
2022/12/19 06:44:19;;;;;;;;;;;;;;;-2.26;100.00;97082.41;4919674;29;19918;-94
2022/12/19 06:46:45;;;;;;;;;;;;;;;-2.17;100.00;97074.34;4921346;29;19960;-94
2022/12/19 06:49:18;;;;;;;;;;;;;;;-2.13;100.00;97075.06;4957714;28;20345;-93
2022/12/19 06:51:43;;;;;;;;;;;;;;;-2.10;100.00;97089.56;4978098;28;19946;-94
2022/12/19 06:54:12;;;;;;;;;;;;;;;-2.03;100.00;97078.94;4968509;28;19923;-94
2022/12/19 06:56:40;;;;;;;;;;;;;;;-1.99;100.00;97071.91;4953637;28;19942;-93
2022/12/19 06:59:06;;;;;;;;;;;;;;;-1.99;100.00;97059.03;4949301;29;19918;-94
2022/12/19 07:01:38;;;;;;;;;;;;;;;-1.96;100.00;97067.47;4930623;29;19918;-93
2022/12/19 07:04:09;;;;;;;;;;;;;;;-1.97;100.00;97060.66;4951771;28;19919;-94
2022/12/19 07:06:35;;;;;;;;;;;;;;;-1.95;100.00;97043.38;4944111;28;19914;-94
2022/12/19 07:09:01;;;;;;;;;;;;;;;-1.87;100.00;97039.66;4942330;28;19921;-94
2022/12/19 07:11:26;;;;;;;;;;;;;;;-1.86;100.00;97043.91;4943961;28;21221;-94
2022/12/19 07:13:56;;;;;;;;;;;;;;;-1.84;100.00;97055.84;4942544;28;19918;-93
2022/12/19 07:16:26;;;;;;;;;;;;;;;-1.79;100.00;97059.03;4943299;29;19914;-92
2022/12/19 07:19:01;;;;;;;;;;;;;;;-1.74;100.00;97067.44;4964628;29;19918;-93
2022/12/19 07:21:31;;;;;;;;;;;;;;;-1.64;100.00;97072.19;4957047;29;19985;-95
2022/12/19 07:23:58;;;;;;;;;;;;;;;-1.63;100.00;97068.75;4929854;29;19922;-95
2022/12/19 07:26:27;;;;;;;;;;;;;;;-1.63;100.00;97076.47;4946488;29;19915;-94
2022/12/19 07:29:03;;;;;;;;;;;;;;;-1.58;100.00;97072.78;4928650;29;19922;-95
2022/12/19 07:31:34;;;;;;;;;;;;;;;-1.59;100.00;97078.03;4960450;28;19997;-94
2022/12/19 07:34:11;;;;;;;;;;;;;;;-1.59;100.00;97086.59;4964496;28;19921;-94
2022/12/19 07:36:36;;;;;;;;;;;;;;;-1.64;100.00;97093.69;4939904;29;19993;-94
2022/12/19 07:39:02;;;;;;;;;;;;;;;-1.60;100.00;97084.09;4948542;28;19965;-94
2022/12/19 07:41:27;;;;;;;;;;;;;;;-1.60;100.00;97078.94;4941693;28;19923;-94
2022/12/19 07:43:53;;;;;;;;;;;;;;;-1.60;100.00;97077.19;4946151;28;19922;-94
2022/12/19 07:46:32;;;;;;;;;;;;;;;-1.64;100.00;97083.38;4918315;29;20009;-94
2022/12/19 07:48:58;;;;;;;;;;;;;;;-1.72;100.00;97098.31;4935388;29;20050;-95
2022/12/19 07:51:23;;;;;;;;;;;;;;;-1.70;100.00;97099.09;4940161;29;20018;-95
2022/12/19 07:54:08;;;;;;;;;;;;;;;-1.74;100.00;97090.66;4958472;28;19942;-95
2022/12/19 07:56:33;;;;;;;;;;;;;;;-1.80;100.00;97097.81;4956198;29;19922;-94
2022/12/19 07:58:59;;;;;;;;;;;;;;;-1.77;100.00;97108.81;4957995;28;20009;-94
2022/12/19 08:01:24;;;;;;;;;;;;;;;-1.74;100.00;97108.72;4962867;28;19998;-94
2022/12/19 08:03:50;;;;;;;;;;;;;;;-1.68;100.00;97105.00;4963927;28;19914;-94
2022/12/19 08:06:15;;;;;;;;;;;;;;;-1.63;100.00;97108.25;4927810;29;19969;-93
2022/12/19 08:08:41;;;;;;;;;;;;;;;-1.60;100.00;97112.47;4938746;29;19917;-95
2022/12/19 08:14:35;;;;;;;;;;;;;;;-1.55;100.00;97098.44;4959766;29;20035;-95
2022/12/19 08:17:00;;;;;;;;;;;;;;;-1.48;100.00;97099.88;4955356;29;19914;-94
2022/12/19 08:19:31;;;;;;;;;;;;;;;-1.65;100.00;97089.41;4951941;29;19984;-94
2022/12/19 08:21:56;;;;;;;;;;;;;;;-1.59;100.00;97093.50;4956540;28;19965;-94
2022/12/19 08:24:30;;;;;;;;;;;;;;;-1.61;100.00;97097.88;4952971;28;20005;-95
2022/12/19 08:26:56;;;;;;;;;;;;;;;-1.57;100.00;97084.78;4952191;29;20498;-94
2022/12/19 08:29:21;;;;;;;;;;;;;;;-1.51;100.00;97078.53;4954226;29;19910;-94
2022/12/19 08:31:47;;;;;;;;;;;;;;;-1.41;100.00;97090.13;4961776;28;20294;-94
2022/12/19 08:34:13;;;;;;;;;;;;;;;-1.38;100.00;97089.16;4940216;29;19914;-94
2022/12/19 08:36:38;;;;;;;;;;;;;;;-1.36;100.00;97087.38;4961264;28;20316;-94
2022/12/19 08:39:04;;;;;;;;;;;;;;;-1.22;100.00;97090.19;4968118;28;19941;-95
2022/12/19 08:41:30;;;;;;;;;;;;;;;-1.14;100.00;97082.97;4937180;29;20025;-94
2022/12/19 08:43:55;;;;;;;;;;;;;;;-1.01;100.00;97083.25;4953640;28;19918;-94
2022/12/19 08:46:21;;;;;;;;;;;;;;;-0.95;100.00;97081.25;4954790;28;19958;-94
2022/12/19 08:48:47;;;;;;;;;;;;;;;-0.88;100.00;97088.72;4957003;29;19973;-94
2022/12/19 08:51:13;;;;;;;;;;;;;;;-0.84;100.00;97085.94;4965600;28;20404;-94
2022/12/19 08:53:40;;;;;;;;;;;;;;;-0.76;100.00;97095.94;4973459;28;19921;-94
2022/12/19 08:56:16;;;;;;;;;;;;;;;-0.63;100.00;97101.38;4964699;28;19910;-94
2022/12/19 08:58:42;;;;;;;;;;;;;;;-0.60;100.00;97096.09;4926311;29;19914;-94
2022/12/19 09:01:10;;;;;;;;;;;;;;;-0.36;100.00;97092.38;4958256;28;19914;-95
2022/12/19 09:03:36;;;;;;;;;;;;;;;-0.29;100.00;97087.75;4945350;29;20332;-95
2022/12/19 09:06:03;;;;;;;;;;;;;;;-0.26;100.00;97088.44;4957816;29;19910;-94
2022/12/19 09:08:31;;;;;;;;;;;;;;;-0.19;100.00;97075.25;4944735;29;20395;-95
2022/12/19 09:11:18;;;;;;;;;;;;;;;-0.06;100.00;97078.91;4948449;29;20013;-94
2022/12/19 09:13:47;;;;;;;;;;;;;;;0.02;100.00;97084.53;4941615;29;19925;-94
2022/12/19 09:16:14;;;;;;;;;;;;;;;0.04;100.00;97080.16;4933333;29;20018;-94
2022/12/19 09:18:40;;;;;;;;;;;;;;;0.15;100.00;97077.88;4963603;28;20349;-94
2022/12/19 09:21:06;;;;;;;;;;;;;;;0.29;100.00;97076.34;4965541;28;19914;-94
2022/12/19 09:23:58;;;;;;;;;;;;;;;0.25;100.00;97085.19;4960348;29;19930;-92
2022/12/19 09:26:24;;;;;;;;;;;;;;;0.37;100.00;97084.56;4934667;29;19926;-95
2022/12/19 09:28:50;;;;;;;;;;;;;;;0.64;100.00;97079.78;4977147;28;19914;-94
2022/12/19 09:31:19;;;;;;;;;;;;;;;0.74;100.00;97074.97;4974430;28;19934;-94
2022/12/19 09:33:45;;;;;;;;;;;;;;;0.65;100.00;97065.94;4973797;28;19914;-94
2022/12/19 09:36:12;;;;;;;;;;;;;;;0.73;100.00;97068.13;4973921;28;19999;-95
2022/12/19 09:38:37;;;;;;;;;;;;;;;0.77;100.00;97067.91;4977546;29;19907;-95
2022/12/19 09:41:12;;;;;;;;;;;;;;;0.78;100.00;97060.97;4973680;28;19924;-95
2022/12/19 09:43:56;;;;;;;;;;;;;;;0.85;100.00;97057.13;4955619;29;19914;-95
2022/12/19 09:46:32;;;;;;;;;;;;;;;0.67;100.00;97053.72;4943119;29;19937;-96
2022/12/19 09:49:02;;;;;;;;;;;;;;;0.75;100.00;97040.41;4942786;29;19921;-95
2022/12/19 09:55:18;;;;;;;;;;;;;;;0.82;100.00;97037.41;4958967;29;19970;-95
2022/12/19 10:01:18;;;;;;;;;;;;;;;1.10;100.00;97038.56;4962472;29;19928;-95
2022/12/19 10:03:49;;;;;;;;;;;;;;;0.88;100.00;97037.09;4946411;29;20012;-95
2022/12/19 10:06:22;;;;;;;;;;;;;;;0.85;100.00;97031.25;4961804;28;19933;-96
2022/12/19 10:08:52;;;;;;;;;;;;;;;0.82;100.00;97036.59;4947568;29;19915;-96
2022/12/19 10:11:28;;;;;;;;;;;;;;;0.84;100.00;97029.56;4944977;29;19918;-95
2022/12/19 10:17:32;;;;;;;;;;;;;;;0.82;100.00;97010.69;4967744;29;19929;-96
2022/12/19 10:23:27;;;;;;;;;;;;;;;1.10;100.00;97016.06;4964659;28;19932;-96
2022/12/19 10:25:56;;;;;;;;;;;;;;;1.19;100.00;97014.75;4929957;29;19922;-96
2022/12/19 10:28:38;;;;;;;;;;;;;;;1.45;100.00;97015.09;4950162;29;19920;-94
2022/12/19 10:34:43;;;;;;;;;;;;;;;1.56;100.00;97002.38;4961346;29;19921;-94
2022/12/19 10:37:29;;;;;;;;;;;;;;;1.58;100.00;97003.97;4960000;29;19954;-96
2022/12/19 10:50:22;;;;;;;;;;;;;;;2.08;100.00;96992.50;4960784;29;19980;-96
2022/12/19 10:53:06;;;;;;;;;;;;;;;2.33;100.00;96994.50;4960356;29;19959;-96
2022/12/19 10:55:33;;;;;;;;;;;;;;;2.50;100.00;96977.91;4944836;29;19914;-96
2022/12/19 11:01:28;;;;;;;;;;;;;;;2.57;100.00;96968.00;4963964;29;20018;-96
2022/12/19 11:04:13;;;;;;;;;;;;;;;2.45;100.00;96967.00;4945292;29;19961;-96
2022/12/19 11:17:36;;;;;;;;;;;;;;;2.28;100.00;96965.41;4961221;29;20467;-95
2022/12/19 11:38:38;;;;;;;;;;;;;;;2.95;100.00;96947.50;4963718;28;20053;-96
2022/12/19 11:41:38;;;;;;;;;;;;;;;3.11;100.00;96930.94;4965710;29;20296;-96
2022/12/19 11:44:33;;;;;;;;;;;;;;;3.13;100.00;96924.75;4942467;28;19913;-96
2022/12/19 11:47:19;;;;;;;;;;;;;;;3.25;100.00;96936.97;4931257;29;20349;-95
2022/12/19 11:49:57;;;;;;;;;;;;;;;2.96;100.00;96935.34;4952404;29;20324;-96
2022/12/19 11:55:55;;;;;;;;;;;;;;;3.15;100.00;96927.22;4953783;29;19918;-95
2022/12/19 11:58:22;;;;;;;;;;;;;;;3.29;100.00;96922.00;4930073;29;19914;-96
2022/12/19 12:04:31;;;;;;;;;;;;;;;3.17;100.00;96892.41;4979239;28;19913;-96
2022/12/19 12:10:27;;;;;;;;;;;;;;;3.27;100.00;96909.09;4960703;29;20296;-95
2022/12/19 12:16:25;;;;;;;;;;;;;;;3.35;100.00;96899.97;4979802;29;19938;-95
2022/12/19 12:19:02;;;;;;;;;;;;;;;3.10;100.00;96900.72;4963817;29;19914;-95
2022/12/19 12:22:04;;;;;;;;;;;;;;;2.86;100.00;96903.09;4936709;29;19929;-94
2022/12/19 12:31:52;;;;;;;;;;;;;;;2.69;100.00;96896.34;4884507;29;20408;-94
2022/12/19 12:44:23;;;;;;;;;;;;;;;2.50;100.00;96917.38;4994176;28;20001;-93
2022/12/19 12:46:55;;;;;;;;;;;;;;;2.44;100.00;96907.38;4944671;29;19993;-94
2022/12/19 12:53:05;;;;;;;;;;;;;;;2.43;100.00;96906.53;4959251;29;19968;-94
2022/12/19 12:59:02;;;;;;;;;;;;;;;2.32;100.00;96906.34;4962200;29;20008;-94
2022/12/19 13:01:27;;;;;;;;;;;;;;;2.27;100.00;96903.19;4957465;29;19922;-94
2022/12/19 13:03:55;;;;;;;;;;;;;;;2.22;100.00;96897.44;4928085;29;19914;-94
2022/12/19 13:06:26;;;;;;;;;;;;;;;2.26;100.00;96901.53;4957473;29;19937;-94
2022/12/19 13:08:56;;;;;;;;;;;;;;;2.20;100.00;96909.66;4958858;29;20328;-94
2022/12/19 13:17:41;;;;;;;;;;;;;;;2.31;100.00;96909.84;4959991;29;20026;-93
2022/12/19 13:20:07;;;;;;;;;;;;;;;2.29;100.00;96893.56;4928081;29;20039;-94
2022/12/19 13:22:59;;;;;;;;;;;;;;;2.40;100.00;96892.91;4960586;29;19918;-94
2022/12/19 13:25:25;;;;;;;;;;;;;;;2.41;100.00;96891.97;4964530;28;19914;-94
2022/12/19 13:31:26;;;;;;;;;;;;;;;2.52;100.00;96885.22;4958688;29;19926;-94
2022/12/19 13:33:51;;;;;;;;;;;;;;;2.57;100.00;96877.97;4929300;29;19976;-94
2022/12/19 13:36:42;;;;;;;;;;;;;;;2.44;100.00;96890.03;4946183;29;20369;-94
2022/12/19 13:39:22;;;;;;;;;;;;;;;2.49;100.00;96880.22;4925782;29;20369;-93
2022/12/19 13:55:14;;;;;;;;;;;;;;;2.45;100.00;96889.13;4957236;29;20009;-96
2022/12/19 13:57:39;;;;;;;;;;;;;;;2.33;100.00;96897.63;4935313;29;19918;-96
2022/12/19 14:00:12;;;;;;;;;;;;;;;2.27;100.00;96895.41;4948734;29;19962;-95
2022/12/19 14:02:39;;;;;;;;;;;;;;;2.14;100.00;96900.47;4946402;29;19915;-87
2022/12/19 14:05:16;;;;;;;;;;;;;;;2.11;100.00;96917.09;4957489;28;19918;-88
2022/12/19 14:07:49;;;;;;;;;;;;;;;2.00;100.00;96911.69;4928678;29;19915;-87
2022/12/19 14:10:28;;;;;;;;;;;;;;;1.97;100.00;96905.84;4939066;29;20249;-88
2022/12/19 14:15:43;;;;;;;;;;;;;;;1.80;100.00;96912.00;4938082;29;19919;-85
2022/12/19 14:18:15;;;;;;;;;;;;;;;1.71;100.00;96899.56;4947078;29;20074;-86
2022/12/19 14:20:41;;;;;;;;;;;;;;;1.72;100.00;96899.50;4931333;29;19929;-87
2022/12/19 14:23:06;;;;;;;;;;;;;;;1.75;100.00;96906.25;4939568;29;19910;-86
2022/12/19 14:25:45;;;;;;;;;;;;;;;1.69;100.00;96909.19;4938719;29;19958;-86
2022/12/19 14:28:12;;;;;;;;;;;;;;;1.66;100.00;96910.22;4958989;28;20360;-87
2022/12/19 14:30:39;;;;;;;;;;;;;;;1.68;100.00;96908.38;4948110;28;20602;-87
2022/12/19 14:33:08;;;;;;;;;;;;;;;1.59;100.00;96909.72;4899845;29;19915;-87
2022/12/19 14:35:36;;;;;;;;;;;;;;;1.63;100.00;96911.22;4895679;29;20259;-86
2022/12/19 14:38:03;;;;;;;;;;;;;;;1.54;100.00;96901.38;4917653;29;19921;-87
2022/12/19 14:40:32;;;;;;;;;;;;;;;1.55;100.00;96903.03;4900119;29;20041;-87
2022/12/19 14:46:51;;;;;;;;;;;;;;;1.47;100.00;96899.22;4913107;28;20040;-88
2022/12/19 14:49:23;;;;;;;;;;;;;;;1.46;100.00;96898.38;4897122;29;20001;-88
2022/12/19 14:51:55;;;;;;;;;;;;;;;1.49;100.00;96903.38;4892125;29;19929;-88
2022/12/19 14:54:24;;;;;;;;;;;;;;;1.54;100.00;96893.59;4940706;29;19914;-87
2022/12/19 14:59:55;;;;;;;;;;;;;;;1.41;100.00;96900.41;4942876;29;19914;-87
2022/12/19 15:02:30;;;;;;;;;;;;;;;1.39;100.00;96908.25;4945145;29;19918;-88
2022/12/19 15:05:01;;;;;;;;;;;;;;;1.43;100.00;96906.31;4954452;28;19918;-87
2022/12/19 15:07:31;;;;;;;;;;;;;;;1.40;100.00;96903.91;4945353;29;19964;-87
2022/12/19 15:10:22;;;;;;;;;;;;;;;1.40;100.00;96903.91;4936469;29;19928;-89
2022/12/19 15:13:22;;;;;;;;;;;;;;;1.41;100.00;96898.66;4921608;29;20489;-89
2022/12/19 15:16:23;;;;;;;;;;;;;;;1.37;100.00;96894.53;4910422;29;19923;-89
2022/12/19 15:19:18;;;;;;;;;;;;;;;1.39;100.00;96913.44;4907903;29;19970;-89
2022/12/19 21:01:42;;;;;;;;;;;;;;;1.52;100.00;96859.16;5014470;28;19925;-93
2022/12/19 21:07:03;;;;;;;;;;;;;;;1.64;100.00;96861.06;4999034;28;19913;-93
2022/12/19 21:09:28;;;;;;;;;;;;;;;1.69;100.00;96860.78;4982117;28;19914;-94
2022/12/19 21:11:54;;;;;;;;;;;;;;;1.62;100.00;96847.31;4978621;28;19972;-92
2022/12/19 21:17:09;;;;;;;;;;;;;;;1.68;100.00;96850.47;5014848;28;19913;-93
2022/12/19 21:19:34;;;;;;;;;;;;;;;1.63;100.00;96845.56;4983238;28;20376;-93
2022/12/19 21:22:33;;;;;;;;;;;;;;;1.63;100.00;96848.16;4976535;28;19913;-93
2022/12/19 21:24:59;;;;;;;;;;;;;;;1.67;100.00;96843.63;5014889;28;19917;-93
2022/12/19 21:27:24;;;;;;;;;;;;;;;1.68;100.00;96853.94;4994822;28;19919;-93
2022/12/19 21:33:18;;;;;;;;;;;;;;;1.59;100.00;96873.44;5014170;28;20013;-94
2022/12/19 21:35:44;;;;;;;;;;;;;;;1.55;100.00;96876.28;4973195;28;20024;-94
2022/12/19 21:38:09;;;;;;;;;;;;;;;1.60;100.00;96880.28;4979350;28;20347;-94
2022/12/19 21:40:49;;;;;;;;;;;;;;;1.61;100.00;96879.38;4979859;28;19917;-95
2022/12/19 21:44:00;;;;;;;;;;;;;;;1.64;100.00;96875.75;4996163;28;19924;-94
2022/12/19 21:46:38;;;;;;;;;;;;;;;1.71;100.00;96869.31;4975036;28;19924;-94
2022/12/19 21:49:27;;;;;;;;;;;;;;;1.75;100.00;96868.19;4993196;28;19972;-93
2022/12/19 21:51:55;;;;;;;;;;;;;;;1.76;100.00;96858.66;4984571;28;19917;-94
2022/12/19 21:54:29;;;;;;;;;;;;;;;1.73;100.00;96864.84;4985359;28;19917;-94
2022/12/19 21:56:54;;;;;;;;;;;;;;;1.67;100.00;96862.59;4977747;28;19964;-94
2022/12/19 21:59:20;;;;;;;;;;;;;;;1.73;100.00;96862.25;4990185;28;19921;-94
2022/12/19 22:01:45;;;;;;;;;;;;;;;1.86;100.00;96868.38;4986929;28;19917;-93
2022/12/19 22:04:12;;;;;;;;;;;;;;;1.90;100.00;96863.84;4990970;28;19922;-93
2022/12/19 22:06:56;;;;;;;;;;;;;;;1.83;100.00;96867.75;4967739;28;19914;-93
2022/12/19 22:09:33;;;;;;;;;;;;;;;1.76;100.00;96866.44;4986408;28;19913;-94
2022/12/19 22:11:58;;;;;;;;;;;;;;;1.70;100.00;96851.22;4985752;28;19917;-94
2022/12/19 22:14:24;;;;;;;;;;;;;;;1.54;100.00;96859.91;4986229;28;19917;-93
2022/12/19 22:16:52;;;;;;;;;;;;;;;1.45;100.00;96860.44;4986100;28;19913;-94
2022/12/19 22:19:18;;;;;;;;;;;;;;;1.36;100.00;96858.34;4986019;28;19911;-94
2022/12/19 22:22:01;;;;;;;;;;;;;;;1.36;100.00;96864.38;5000917;28;19939;-93
2022/12/19 22:24:27;;;;;;;;;;;;;;;1.26;100.00;96857.22;4978944;28;20394;-93
2022/12/19 22:26:52;;;;;;;;;;;;;;;1.25;100.00;96853.78;4983897;28;19914;-93
2022/12/19 22:32:22;;;;;;;;;;;;;;;1.20;100.00;96853.19;5003321;28;19917;-94
2022/12/19 22:34:48;;;;;;;;;;;;;;;1.22;100.00;96858.31;4988237;28;19914;-91
2022/12/19 22:37:14;;;;;;;;;;;;;;;1.35;100.00;96854.94;5012887;28;19917;-92
2022/12/19 22:39:39;;;;;;;;;;;;;;;1.43;100.00;96864.84;4996497;28;19914;-93
2022/12/19 22:42:05;;;;;;;;;;;;;;;1.44;100.00;96858.75;4983172;28;19921;-94
2022/12/19 22:44:30;;;;;;;;;;;;;;;1.34;100.00;96858.47;4992237;28;19913;-94
2022/12/19 22:46:56;;;;;;;;;;;;;;;1.24;100.00;96862.50;4999563;28;19913;-92
2022/12/19 22:49:21;;;;;;;;;;;;;;;1.20;100.00;96860.16;4987174;28;20307;-93
2022/12/19 22:51:48;;;;;;;;;;;;;;;1.15;100.00;96858.66;4983381;28;20007;-93
2022/12/19 22:54:13;;;;;;;;;;;;;;;1.25;100.00;96865.91;4983096;28;19921;-93
2022/12/19 22:56:39;;;;;;;;;;;;;;;1.33;100.00;96861.94;4989494;28;20005;-93
2022/12/19 22:59:07;;;;;;;;;;;;;;;1.36;100.00;96860.94;4981586;28;19925;-93
2022/12/19 23:01:40;;;;;;;;;;;;;;;1.45;100.00;96860.44;4988964;28;19917;-93
2022/12/19 23:04:06;;;;;;;;;;;;;;;1.48;100.00;96865.44;4991476;28;19921;-94
2022/12/19 23:06:33;;;;;;;;;;;;;;;1.51;100.00;96854.91;4990267;28;19910;-93
2022/12/19 23:08:59;;;;;;;;;;;;;;;1.46;100.00;96854.31;4983681;28;19914;-92
2022/12/19 23:11:26;;;;;;;;;;;;;;;1.47;100.00;96860.34;4988113;28;20281;-92
2022/12/19 23:13:52;;;;;;;;;;;;;;;1.49;100.00;96858.50;5005341;28;19913;-93
2022/12/19 23:16:17;;;;;;;;;;;;;;;1.49;100.00;96864.50;4994639;28;19933;-93